createdAt,value
2019-04-01T00:01:39.459Z,8.50
2019-04-01T00:03:34.095Z,8.50
2019-04-01T00:05:29.065Z,8.50
2019-04-01T00:07:24.152Z,8.40
2019-04-01T00:09:18.136Z,8.40
2019-04-01T00:11:13.135Z,8.40
2019-04-01T00:13:07.322Z,8.40
2019-04-01T00:15:02.111Z,8.30
2019-04-01T00:16:56.926Z,8.30
2019-04-01T00:19:02.281Z,8.30
2019-04-01T00:20:47.514Z,8.20
2019-04-01T00:22:41.854Z,8.20
2019-04-01T00:24:35.755Z,8.20
2019-04-01T00:26:30.785Z,8.10
2019-04-01T00:28:25.171Z,8.10
2019-04-01T00:30:19.940Z,8.10
2019-04-01T00:32:14.276Z,8.10
2019-04-01T00:34:09.051Z,8.00
2019-04-01T00:36:03.914Z,8.00
2019-04-01T00:37:58.914Z,7.90
2019-04-01T00:39:53.775Z,7.90
2019-04-01T00:41:59.739Z,7.90
2019-04-01T00:43:55.431Z,7.90
2019-04-01T00:45:51.026Z,7.90
2019-04-01T00:47:45.048Z,7.90
2019-04-01T00:49:39.664Z,7.90
2019-04-01T00:51:34.305Z,7.90
2019-04-01T00:53:29.175Z,7.90
2019-04-01T00:55:23.356Z,7.90
2019-04-01T00:57:19.506Z,7.90
2019-04-01T00:59:14.275Z,7.90
2019-04-01T01:01:08.274Z,7.90
2019-04-01T01:03:03.164Z,7.80
2019-04-01T01:04:57.784Z,7.80
2019-04-01T01:06:51.959Z,7.70
2019-04-01T01:08:46.799Z,7.60
2019-04-01T01:10:41.441Z,7.50
2019-04-01T01:12:36.163Z,7.40
2019-04-01T01:14:30.425Z,7.30
2019-04-01T01:16:25.419Z,7.20
2019-04-01T01:18:19.506Z,7.10
2019-04-01T01:20:13.913Z,7.00
2019-04-01T01:22:08.767Z,6.90
2019-04-01T01:24:03.640Z,6.80
2019-04-01T01:25:58.474Z,6.80
2019-04-01T01:27:53.044Z,6.70
2019-04-01T01:29:47.587Z,6.70
2019-04-01T01:31:42.330Z,6.60
2019-04-01T01:33:36.911Z,6.60
2019-04-01T01:35:32.041Z,6.50
2019-04-01T01:37:27.906Z,6.50
2019-04-01T01:39:22.804Z,6.40
2019-04-01T01:41:17.702Z,6.40
2019-04-01T01:43:12.635Z,6.40
2019-04-01T01:45:07.422Z,6.40
2019-04-01T01:47:02.060Z,6.40
2019-04-01T01:48:56.953Z,6.30
2019-04-01T01:50:51.085Z,6.30
2019-04-01T01:52:46.112Z,6.20
2019-04-01T01:54:39.994Z,6.20
2019-04-01T01:56:34.992Z,6.20
2019-04-01T01:58:30.759Z,6.10
2019-04-01T02:00:26.980Z,6.10
2019-04-01T02:02:21.120Z,6.00
2019-04-01T02:04:15.437Z,6.00
2019-04-01T02:06:09.618Z,6.00
2019-04-01T02:08:04.223Z,6.00
2019-04-01T02:09:59.070Z,5.90
2019-04-01T02:11:53.154Z,5.90
2019-04-01T02:13:47.986Z,5.90
2019-04-01T02:15:42.396Z,5.90
2019-04-01T02:17:36.835Z,5.90
2019-04-01T02:19:31.046Z,5.90
2019-04-01T02:21:26.321Z,5.90
2019-04-01T02:23:21.003Z,5.90
2019-04-01T02:25:15.584Z,5.90
2019-04-01T02:27:10.547Z,5.90
2019-04-01T02:29:05.270Z,5.80
2019-04-01T02:31:00.172Z,5.80
2019-04-01T02:32:55.276Z,5.80
2019-04-01T02:34:50.088Z,5.70
2019-04-01T02:36:46.064Z,5.70
2019-04-01T02:38:40.035Z,5.70
2019-04-01T02:40:34.951Z,5.70
2019-04-01T02:42:29.972Z,5.70
2019-04-01T02:44:24.679Z,5.70
2019-04-01T02:46:18.754Z,5.70
2019-04-01T02:48:13.598Z,5.70
2019-04-01T02:50:08.597Z,5.70
2019-04-01T02:52:03.769Z,5.60
2019-04-01T02:53:57.981Z,5.60
2019-04-01T02:55:52.788Z,5.70
2019-04-01T02:57:46.781Z,5.70
2019-04-01T02:59:41.264Z,5.70
2019-04-01T03:01:36.957Z,5.80
2019-04-01T03:03:31.077Z,5.90
2019-04-01T03:05:26.041Z,6.00
2019-04-01T03:07:20.118Z,6.00
2019-04-01T03:09:14.803Z,6.00
2019-04-01T03:11:10.747Z,6.00
2019-04-01T03:13:05.931Z,5.90
2019-04-01T03:15:00.062Z,5.80
2019-04-01T03:16:54.814Z,5.80
2019-04-01T03:18:49.395Z,5.70
2019-04-01T03:20:43.579Z,5.60
2019-04-01T03:22:37.845Z,5.60
2019-04-01T03:24:31.935Z,5.50
2019-04-01T03:26:26.831Z,5.50
2019-04-01T03:28:21.355Z,5.40
2019-04-01T03:30:15.900Z,5.40
2019-04-01T03:32:10.491Z,5.30
2019-04-01T03:34:05.750Z,5.30
2019-04-01T03:36:00.506Z,5.30
2019-04-01T03:37:54.608Z,5.30
2019-04-01T03:39:49.618Z,5.30
2019-04-01T03:41:43.596Z,5.30
2019-04-01T03:43:37.882Z,5.40
2019-04-01T03:45:32.981Z,5.40
2019-04-01T03:47:27.930Z,5.40
2019-04-01T03:49:22.482Z,5.40
2019-04-01T03:51:18.153Z,5.40
2019-04-01T03:53:12.209Z,5.50
2019-04-01T03:55:06.411Z,5.50
2019-04-01T03:57:00.618Z,5.50
2019-04-01T03:58:54.589Z,5.50
2019-04-01T04:00:48.792Z,5.50
2019-04-01T04:02:42.929Z,5.50
2019-04-01T04:04:37.890Z,5.60
2019-04-01T04:06:32.939Z,5.60
2019-04-01T04:08:27.266Z,5.70
2019-04-01T04:10:22.212Z,5.70
2019-04-01T04:12:16.373Z,5.70
2019-04-01T04:14:11.367Z,5.70
2019-04-01T04:16:06.206Z,5.70
2019-04-01T04:18:00.811Z,5.70
2019-04-01T04:19:55.524Z,5.70
2019-04-01T04:21:50.540Z,5.70
2019-04-01T04:23:45.003Z,5.70
2019-04-01T04:25:39.406Z,5.70
2019-04-01T04:27:34.139Z,5.70
2019-04-01T04:29:28.819Z,5.60
2019-04-01T04:31:22.902Z,5.50
2019-04-01T04:33:17.447Z,5.50
2019-04-01T04:35:13.202Z,5.40
2019-04-01T04:37:07.473Z,5.40
2019-04-01T04:39:02.279Z,5.30
2019-04-01T04:40:57.269Z,5.30
2019-04-01T04:42:51.448Z,5.20
2019-04-01T04:44:46.023Z,5.20
2019-04-01T04:46:40.779Z,5.30
2019-04-01T04:48:35.647Z,5.30
2019-04-01T04:50:30.573Z,5.40
2019-04-01T04:52:26.463Z,5.40
2019-04-01T04:54:21.387Z,5.50
2019-04-01T04:56:16.202Z,5.50
2019-04-01T04:58:10.571Z,5.50
2019-04-01T05:00:05.110Z,5.50
2019-04-01T05:01:59.697Z,5.60
2019-04-01T05:03:54.694Z,5.60
2019-04-01T05:05:49.588Z,5.50
2019-04-01T05:07:44.442Z,5.40
2019-04-01T05:09:39.447Z,5.30
2019-04-01T05:11:33.695Z,5.30
2019-04-01T05:13:28.384Z,5.20
2019-04-01T05:15:23.855Z,5.10
2019-04-01T05:17:18.747Z,5.10
2019-04-01T05:19:13.678Z,5.10
2019-04-01T05:21:08.535Z,5.20
2019-04-01T05:23:03.783Z,5.20
2019-04-01T05:24:58.970Z,5.20
2019-04-01T05:26:54.854Z,5.30
2019-04-01T05:28:50.063Z,5.40
2019-04-01T05:30:48.717Z,5.50
2019-04-01T05:32:45.330Z,5.60
2019-04-01T05:34:41.784Z,5.70
2019-04-01T05:36:36.062Z,5.70
2019-04-01T05:38:31.470Z,5.80
2019-04-01T05:40:27.737Z,5.80
2019-04-01T05:42:22.036Z,5.90
2019-04-01T05:44:17.555Z,5.90
2019-04-01T05:46:12.534Z,6.00
2019-04-01T05:48:06.542Z,6.00
2019-04-01T05:50:02.363Z,6.10
2019-04-01T05:51:56.646Z,6.10
2019-04-01T05:53:51.702Z,6.20
2019-04-01T05:55:46.863Z,6.20
2019-04-01T05:57:42.006Z,6.30
2019-04-01T05:59:37.819Z,6.40
2019-04-01T06:01:37.217Z,6.40
2019-04-01T06:03:32.043Z,6.50
2019-04-01T06:05:26.947Z,6.50
2019-04-01T06:07:22.051Z,6.60
2019-04-01T06:09:17.544Z,6.70
2019-04-01T06:11:11.674Z,6.70
2019-04-01T06:13:06.326Z,6.80
2019-04-01T06:15:01.266Z,6.80
2019-04-01T06:16:56.062Z,6.90
2019-04-01T06:18:51.024Z,6.90
2019-04-01T06:20:46.550Z,7.00
2019-04-01T06:22:41.133Z,7.10
2019-04-01T06:24:35.255Z,7.20
2019-04-01T06:26:29.859Z,7.20
2019-04-01T06:28:23.752Z,7.20
2019-04-01T06:30:18.832Z,7.30
2019-04-01T06:32:13.887Z,7.30
2019-04-01T06:34:08.614Z,7.40
2019-04-01T06:36:03.418Z,7.40
2019-04-01T06:37:58.350Z,7.50
2019-04-01T06:39:52.954Z,7.50
2019-04-01T06:41:47.731Z,7.60
2019-04-01T06:43:42.587Z,7.60
2019-04-01T06:45:37.028Z,7.60
2019-04-01T06:47:32.210Z,7.70
2019-04-01T06:49:26.827Z,7.70
2019-04-01T06:51:21.504Z,7.70
2019-04-01T06:53:15.784Z,7.80
2019-04-01T06:55:10.099Z,7.80
2019-04-01T06:57:04.959Z,7.90
2019-04-01T06:58:59.580Z,7.90
2019-04-01T07:00:53.663Z,8.00
2019-04-01T07:02:48.944Z,8.00
2019-04-01T07:04:43.142Z,8.10
2019-04-01T07:06:43.423Z,8.20
2019-04-01T07:08:37.784Z,8.20
2019-04-01T07:10:31.872Z,8.30
2019-04-01T07:12:27.896Z,8.40
2019-04-01T07:14:23.109Z,8.50
2019-04-01T07:16:17.366Z,8.60
2019-04-01T07:18:11.974Z,8.60
2019-04-01T07:20:08.854Z,8.70
2019-04-01T07:22:03.105Z,8.80
2019-04-01T07:23:57.791Z,8.80
2019-04-01T07:25:52.907Z,8.90
2019-04-01T07:27:47.560Z,9.00
2019-04-01T07:29:42.372Z,9.00
2019-04-01T07:31:37.776Z,9.10
2019-04-01T07:33:32.512Z,9.20
2019-04-01T07:35:27.342Z,9.30
2019-04-01T07:37:22.560Z,9.40
2019-04-01T07:39:17.421Z,9.50
2019-04-01T07:41:12.352Z,9.60
2019-04-01T07:43:07.180Z,9.80
2019-04-01T07:45:02.139Z,9.90
2019-04-01T07:46:57.376Z,10.10
2019-04-01T07:48:51.938Z,10.10
2019-04-01T07:50:46.559Z,10.10
2019-04-01T07:52:40.944Z,10.20
2019-04-01T07:54:36.139Z,10.30
2019-04-01T07:56:30.784Z,10.40
2019-04-01T07:58:25.733Z,10.50
2019-04-01T08:00:20.655Z,10.60
2019-04-01T08:02:15.690Z,10.70
2019-04-01T08:04:10.288Z,10.80
2019-04-01T08:06:05.203Z,10.80
2019-04-01T08:08:00.290Z,10.90
2019-04-01T08:09:57.775Z,10.90
2019-04-01T08:11:52.528Z,11.00
2019-04-01T08:13:47.356Z,11.20
2019-04-01T08:15:42.173Z,11.20
2019-04-01T08:17:36.878Z,11.20
2019-04-01T08:19:31.682Z,11.20
2019-04-01T08:21:26.594Z,11.30
2019-04-01T08:23:21.105Z,11.30
2019-04-01T08:25:15.467Z,11.30
2019-04-01T08:27:10.410Z,11.50
2019-04-01T08:29:05.158Z,11.70
2019-04-01T08:30:59.757Z,11.80
2019-04-01T08:32:54.011Z,11.90
2019-04-01T08:34:48.178Z,12.10
2019-04-01T08:36:43.077Z,12.20
2019-04-01T08:38:38.041Z,12.30
2019-04-01T08:40:32.782Z,12.50
2019-04-01T08:42:27.475Z,12.50
2019-04-01T08:44:22.170Z,12.60
2019-04-01T08:46:17.244Z,12.70
2019-04-01T08:48:12.067Z,12.70
2019-04-01T08:50:07.735Z,12.80
2019-04-01T08:52:02.353Z,12.90
2019-04-01T08:53:57.194Z,13.00
2019-04-01T08:56:00.509Z,13.00
2019-04-01T08:57:48.505Z,13.00
2019-04-01T08:59:42.579Z,13.10
2019-04-01T09:01:37.472Z,13.10
2019-04-01T09:03:32.712Z,13.10
2019-04-01T09:05:29.670Z,13.20
2019-04-01T09:07:24.481Z,13.20
2019-04-01T09:09:20.133Z,13.40
2019-04-01T09:11:14.530Z,13.30
2019-04-01T09:13:09.009Z,13.30
2019-04-01T09:15:04.327Z,13.40
2019-04-01T09:16:58.563Z,13.50
2019-04-01T09:18:52.931Z,13.60
2019-04-01T09:20:48.700Z,13.60
2019-04-01T09:22:43.109Z,13.60
2019-04-01T09:24:39.840Z,13.90
2019-04-01T09:26:34.506Z,13.80
2019-04-01T09:28:29.493Z,14.00
2019-04-01T09:30:23.531Z,14.10
2019-04-01T09:32:17.511Z,14.10
2019-04-01T09:34:11.833Z,14.10
2019-04-01T09:36:06.531Z,14.20
2019-04-01T09:38:01.413Z,14.10
2019-04-01T09:39:55.490Z,14.00
2019-04-01T09:41:49.823Z,14.00
2019-04-01T09:43:44.717Z,14.00
2019-04-01T09:45:39.659Z,14.00
2019-04-01T09:47:34.307Z,14.10
2019-04-01T09:49:28.574Z,14.40
2019-04-01T09:51:23.631Z,14.40
2019-04-01T09:53:18.383Z,14.50
2019-04-01T09:55:13.177Z,14.70
2019-04-01T09:57:17.366Z,14.80
2019-04-01T09:59:04.348Z,14.90
2019-04-01T10:00:58.997Z,15.10
2019-04-01T10:02:54.134Z,15.20
2019-04-01T10:04:48.429Z,15.20
2019-04-01T10:06:43.023Z,15.40
2019-04-01T10:08:42.547Z,15.40
2019-04-01T10:10:34.620Z,15.50
2019-04-01T10:12:30.003Z,15.50
2019-04-01T10:14:24.665Z,15.80
2019-04-01T10:16:19.683Z,15.80
2019-04-01T10:18:14.087Z,15.80
2019-04-01T10:20:09.468Z,15.70
2019-04-01T10:22:04.155Z,15.80
2019-04-01T10:23:58.914Z,15.70
2019-04-01T10:25:53.819Z,15.60
2019-04-01T10:27:48.608Z,15.30
2019-04-01T10:29:43.280Z,15.20
2019-04-01T10:31:38.254Z,15.20
2019-04-01T10:33:33.086Z,15.40
2019-04-01T10:35:27.985Z,15.40
2019-04-01T10:37:22.713Z,15.50
2019-04-01T10:39:17.644Z,15.60
2019-04-01T10:41:12.452Z,15.40
2019-04-01T10:43:07.543Z,15.40
2019-04-01T10:45:02.016Z,15.50
2019-04-01T10:46:57.310Z,15.40
2019-04-01T10:48:51.447Z,15.50
2019-04-01T10:50:46.753Z,15.50
2019-04-01T10:52:44.039Z,15.60
2019-04-01T10:54:37.659Z,15.40
2019-04-01T10:56:35.754Z,15.40
2019-04-01T10:58:28.732Z,15.30
2019-04-01T11:00:25.027Z,15.30
2019-04-01T11:02:19.919Z,15.20
2019-04-01T11:04:14.952Z,15.30
2019-04-01T11:06:09.884Z,15.30
2019-04-01T11:08:04.788Z,15.10
2019-04-01T11:09:59.850Z,15.20
2019-04-01T11:11:55.818Z,15.10
2019-04-01T11:13:51.939Z,15.20
2019-04-01T11:15:46.481Z,15.30
2019-04-01T11:17:40.906Z,15.50
2019-04-01T11:19:35.554Z,15.40
2019-04-01T11:21:30.431Z,15.50
2019-04-01T11:23:24.530Z,15.60
2019-04-01T11:25:19.499Z,15.60
2019-04-01T11:27:14.375Z,15.70
2019-04-01T11:29:08.994Z,15.80
2019-04-01T11:31:03.992Z,16.10
2019-04-01T11:32:59.164Z,16.20
2019-04-01T11:34:55.943Z,16.10
2019-04-01T11:36:48.869Z,16.10
2019-04-01T11:38:42.916Z,16.10
2019-04-01T11:40:38.947Z,16.20
2019-04-01T11:42:33.277Z,16.20
2019-04-01T11:44:28.374Z,16.10
2019-04-01T11:46:23.510Z,16.30
2019-04-01T11:48:18.514Z,16.20
2019-04-01T11:50:13.379Z,16.40
2019-04-01T11:52:08.890Z,16.50
2019-04-01T11:54:03.826Z,16.70
2019-04-01T11:55:59.742Z,16.70
2019-04-01T11:57:55.736Z,16.70
2019-04-01T11:59:50.201Z,16.80
2019-04-01T12:01:45.090Z,16.90
2019-04-01T12:03:39.820Z,16.90
2019-04-01T12:05:34.556Z,16.90
2019-04-01T12:07:29.017Z,16.90
2019-04-01T12:09:23.380Z,17.20
2019-04-01T12:11:17.356Z,17.30
2019-04-01T12:13:11.520Z,17.30
2019-04-01T12:15:06.973Z,17.10
2019-04-01T12:17:02.757Z,17.10
2019-04-01T12:18:56.950Z,17.00
2019-04-01T12:20:51.928Z,17.00
2019-04-01T12:22:46.278Z,17.00
2019-04-01T12:24:42.424Z,16.80
2019-04-01T12:26:37.359Z,17.00
2019-04-01T12:28:31.940Z,17.10
2019-04-01T12:30:26.518Z,17.00
2019-04-01T12:32:21.478Z,17.10
2019-04-01T12:34:15.467Z,17.00
2019-04-01T12:36:11.646Z,16.90
2019-04-01T12:38:05.829Z,16.90
2019-04-01T12:40:00.795Z,16.90
2019-04-01T12:41:55.947Z,17.00
2019-04-01T12:43:51.324Z,17.00
2019-04-01T12:45:46.861Z,17.10
2019-04-01T12:47:43.305Z,17.00
2019-04-01T12:49:37.668Z,17.00
2019-04-01T12:51:32.339Z,17.10
2019-04-01T12:53:27.402Z,17.20
2019-04-01T12:55:21.995Z,17.20
2019-04-01T12:57:18.708Z,17.20
2019-04-01T12:59:12.638Z,17.30
2019-04-01T13:01:07.382Z,17.40
2019-04-01T13:03:02.164Z,17.20
2019-04-01T13:04:56.813Z,17.30
2019-04-01T13:06:54.331Z,17.30
2019-04-01T13:08:48.414Z,17.30
2019-04-01T13:10:43.483Z,17.30
2019-04-01T13:12:38.039Z,17.30
2019-04-01T13:14:33.288Z,17.20
2019-04-01T13:16:28.730Z,17.40
2019-04-01T13:18:23.759Z,17.30
2019-04-01T13:20:36.672Z,17.30
2019-04-01T13:22:17.996Z,17.30
2019-04-01T13:24:13.064Z,17.30
2019-04-01T13:26:08.083Z,17.20
2019-04-01T13:28:02.971Z,17.20
2019-04-01T13:29:57.986Z,17.10
2019-04-01T13:31:52.839Z,17.20
2019-04-01T13:33:48.174Z,17.30
2019-04-01T13:35:42.387Z,17.40
2019-04-01T13:37:36.377Z,17.30
2019-04-01T13:39:31.337Z,17.30
2019-04-01T13:41:25.888Z,17.30
2019-04-01T13:43:20.729Z,17.30
2019-04-01T13:45:17.488Z,17.40
2019-04-01T13:47:12.121Z,17.30
2019-04-01T13:49:07.346Z,17.40
2019-04-01T13:51:03.947Z,17.50
2019-04-01T13:52:58.795Z,17.50
2019-04-01T13:54:53.521Z,17.50
2019-04-01T13:56:47.758Z,17.60
2019-04-01T13:58:43.744Z,17.40
2019-04-01T14:00:41.518Z,17.30
2019-04-01T14:02:36.500Z,17.10
2019-04-01T14:04:30.667Z,17.10
2019-04-01T14:06:25.606Z,17.20
2019-04-01T14:08:20.268Z,17.20
2019-04-01T14:10:15.901Z,17.30
2019-04-01T14:12:10.961Z,17.30
2019-04-01T14:14:06.042Z,17.30
2019-04-01T14:16:05.491Z,17.20
2019-04-01T14:18:00.472Z,17.30
2019-04-01T14:19:54.760Z,17.30
2019-04-01T14:21:49.537Z,17.20
2019-04-01T14:23:44.103Z,17.20
2019-04-01T14:25:43.050Z,17.10
2019-04-01T14:27:39.258Z,17.00
2019-04-01T14:29:34.090Z,17.10
2019-04-01T14:31:29.065Z,17.20
2019-04-01T14:33:23.291Z,17.30
2019-04-01T14:35:18.389Z,17.30
2019-04-01T14:37:13.435Z,17.20
2019-04-01T14:39:09.095Z,17.20
2019-04-01T14:41:04.044Z,17.30
2019-04-01T14:42:58.748Z,17.30
2019-04-01T14:44:59.339Z,17.30
2019-04-01T14:46:56.180Z,17.40
2019-04-01T14:48:51.008Z,17.20
2019-04-01T14:50:44.901Z,17.20
2019-04-01T14:52:40.996Z,17.00
2019-04-01T14:54:36.570Z,17.00
2019-04-01T14:56:34.061Z,16.80
2019-04-01T14:58:28.700Z,16.80
2019-04-01T15:00:23.213Z,16.80
2019-04-01T15:02:18.237Z,17.00
2019-04-01T15:04:12.929Z,17.10
2019-04-01T15:06:08.305Z,17.10
2019-04-01T15:08:04.197Z,17.00
2019-04-01T15:10:00.177Z,16.90
2019-04-01T15:11:55.395Z,16.90
2019-04-01T15:13:50.228Z,16.90
2019-04-01T15:15:47.923Z,17.00
2019-04-01T15:17:42.174Z,17.00
2019-04-01T15:19:36.463Z,16.90
2019-04-01T15:21:30.653Z,16.90
2019-04-01T15:23:27.761Z,16.90
2019-04-01T15:25:23.822Z,16.90
2019-04-01T15:27:18.159Z,17.00
2019-04-01T15:29:13.110Z,17.00
2019-04-01T15:31:07.121Z,17.00
2019-04-01T15:33:02.147Z,16.90
2019-04-01T15:34:56.336Z,16.90
2019-04-01T15:36:51.118Z,16.80
2019-04-01T15:38:45.703Z,16.70
2019-04-01T15:40:39.744Z,16.70
2019-04-01T15:42:33.678Z,16.60
2019-04-01T15:44:29.382Z,16.50
2019-04-01T15:46:23.923Z,16.60
2019-04-01T15:48:19.392Z,16.50
2019-04-01T15:50:27.886Z,16.50
2019-04-01T15:52:11.289Z,16.50
2019-04-01T15:54:06.037Z,16.40
2019-04-01T15:56:00.689Z,16.40
2019-04-01T15:57:55.187Z,16.30
2019-04-01T15:59:49.694Z,16.20
2019-04-01T16:01:43.647Z,16.10
2019-04-01T16:03:38.242Z,16.10
2019-04-01T16:05:34.137Z,16.10
2019-04-01T16:07:29.297Z,16.00
2019-04-01T16:09:24.257Z,16.00
2019-04-01T16:11:18.943Z,15.90
2019-04-01T16:13:14.164Z,15.90
2019-04-01T16:15:09.226Z,15.80
2019-04-01T16:17:05.200Z,15.80
2019-04-01T16:19:00.530Z,15.80
2019-04-01T16:20:55.939Z,15.80
2019-04-01T16:22:51.225Z,15.80
2019-04-01T16:24:45.664Z,15.70
2019-04-01T16:26:40.144Z,15.70
2019-04-01T16:28:34.251Z,15.60
2019-04-01T16:30:28.409Z,15.60
2019-04-01T16:32:23.615Z,15.50
2019-04-01T16:34:18.539Z,15.50
2019-04-01T16:36:13.007Z,15.40
2019-04-01T16:38:08.123Z,15.40
2019-04-01T16:40:05.834Z,15.30
2019-04-01T16:41:59.143Z,15.30
2019-04-01T16:43:53.554Z,15.20
2019-04-01T16:45:48.303Z,15.20
2019-04-01T16:47:42.895Z,15.10
2019-04-01T16:49:38.398Z,15.00
2019-04-01T16:51:33.381Z,14.90
2019-04-01T16:53:28.382Z,14.80
2019-04-01T16:55:23.227Z,14.80
2019-04-01T16:57:17.656Z,14.70
2019-04-01T16:59:11.834Z,14.70
2019-04-01T17:01:07.027Z,14.60
2019-04-01T17:03:01.936Z,14.50
2019-04-01T17:05:00.151Z,14.50
2019-04-01T17:06:52.866Z,14.40
2019-04-01T17:08:47.494Z,14.40
2019-04-01T17:10:42.409Z,14.30
2019-04-01T17:12:38.248Z,14.20
2019-04-01T17:14:33.108Z,14.20
2019-04-01T17:16:27.391Z,14.10
2019-04-01T17:18:22.374Z,14.10
2019-04-01T17:20:16.919Z,14.00
2019-04-01T17:22:11.512Z,14.00
2019-04-01T17:24:06.826Z,13.90
2019-04-01T17:26:01.551Z,13.80
2019-04-01T17:27:56.435Z,13.70
2019-04-01T17:29:50.876Z,13.70
2019-04-01T17:31:46.050Z,13.60
2019-04-01T17:33:41.346Z,13.60
2019-04-01T17:35:36.541Z,13.50
2019-04-01T17:37:31.679Z,13.40
2019-04-01T17:39:25.625Z,13.30
2019-04-01T17:41:20.094Z,13.30
2019-04-01T17:43:16.457Z,13.20
2019-04-01T17:45:40.286Z,13.20
2019-04-01T17:47:35.379Z,13.10
2019-04-01T17:49:31.160Z,13.00
2019-04-01T17:51:27.538Z,12.90
2019-04-01T17:53:22.292Z,12.90
2019-04-01T17:55:17.234Z,12.80
2019-04-01T17:57:12.774Z,12.70
2019-04-01T17:59:07.662Z,12.60
2019-04-01T18:01:02.328Z,12.60
2019-04-01T18:02:57.339Z,12.50
2019-04-01T18:04:52.263Z,12.50
2019-04-01T18:06:46.844Z,12.40
2019-04-01T18:08:41.648Z,12.40
2019-04-01T18:10:35.748Z,12.30
2019-04-01T18:12:29.965Z,12.30
2019-04-01T18:14:24.706Z,12.20
2019-04-01T18:16:19.700Z,12.10
2019-04-01T18:18:26.731Z,12.00
2019-04-01T18:20:11.946Z,11.90
2019-04-01T18:22:06.157Z,11.80
2019-04-01T18:24:00.285Z,11.70
2019-04-01T18:25:54.577Z,11.60
2019-04-01T18:27:49.184Z,11.50
2019-04-01T18:29:44.164Z,11.40
2019-04-01T18:31:39.258Z,11.30
2019-04-01T18:33:34.418Z,11.30
2019-04-01T18:35:29.414Z,11.20
2019-04-01T18:37:24.191Z,11.20
2019-04-01T18:39:19.270Z,11.10
2019-04-01T18:41:14.315Z,11.10
2019-04-01T18:43:09.667Z,11.00
2019-04-01T18:45:05.335Z,10.90
2019-04-01T18:47:03.699Z,10.90
2019-04-01T18:48:56.479Z,10.80
2019-04-01T18:50:50.762Z,10.80
2019-04-01T18:52:45.974Z,10.70
2019-04-01T18:54:41.114Z,10.70
2019-04-01T18:56:36.366Z,10.60
2019-04-01T18:58:31.235Z,10.50
2019-04-01T19:00:25.305Z,10.50
2019-04-01T19:02:19.367Z,10.60
2019-04-01T19:04:13.746Z,10.60
2019-04-01T19:06:08.540Z,10.70
2019-04-01T19:08:04.396Z,10.70
2019-04-01T19:10:05.940Z,10.70
2019-04-01T19:12:03.762Z,10.60
2019-04-01T19:13:51.810Z,10.60
2019-04-01T19:15:47.385Z,10.50
2019-04-01T19:17:42.255Z,10.50
2019-04-01T19:19:40.189Z,10.50
2019-04-01T19:21:34.010Z,10.50
2019-04-01T19:23:28.279Z,10.60
2019-04-01T19:25:23.577Z,10.60
2019-04-01T19:27:19.708Z,10.60
2019-04-01T19:29:16.038Z,10.60
2019-04-01T19:31:12.108Z,10.60
2019-04-01T19:33:07.046Z,10.70
2019-04-01T19:35:02.247Z,10.70
2019-04-01T19:36:58.131Z,10.70
2019-04-01T19:38:54.442Z,10.70
2019-04-01T19:40:49.874Z,10.70
2019-04-01T19:42:43.954Z,10.70
2019-04-01T19:44:39.062Z,10.70
2019-04-01T19:46:33.755Z,10.70
2019-04-01T19:48:28.949Z,10.70
2019-04-01T19:50:23.916Z,10.70
2019-04-01T19:52:19.005Z,10.60
2019-04-01T19:54:14.293Z,10.60
2019-04-01T19:56:08.408Z,10.60
2019-04-01T19:58:05.081Z,10.50
2019-04-01T20:00:00.192Z,10.50
2019-04-01T20:01:58.175Z,10.40
2019-04-01T20:03:55.275Z,10.40
2019-04-01T20:05:51.015Z,10.40
2019-04-01T20:07:46.444Z,10.30
2019-04-01T20:09:41.169Z,10.30
2019-04-01T20:11:35.550Z,10.30
2019-04-01T20:13:33.393Z,10.30
2019-04-01T20:15:27.520Z,10.30
2019-04-01T20:17:21.818Z,10.20
2019-04-01T20:19:15.773Z,10.20
2019-04-01T20:21:10.306Z,10.20
2019-04-01T20:23:05.939Z,10.20
2019-04-01T20:25:01.134Z,10.20
2019-04-01T20:26:56.456Z,10.20
2019-04-01T20:28:50.889Z,10.10
2019-04-01T20:30:45.399Z,10.10
2019-04-01T20:32:40.559Z,10.10
2019-04-01T20:34:34.806Z,10.10
2019-04-01T20:36:31.324Z,10.00
2019-04-01T20:38:27.272Z,10.00
2019-04-01T20:40:23.285Z,9.90
2019-04-01T20:42:19.191Z,10.00
2019-04-01T20:44:14.110Z,9.90
2019-04-01T20:46:08.411Z,9.90
2019-04-01T20:48:04.430Z,9.90
2019-04-01T20:49:59.460Z,9.80
2019-04-01T20:51:54.123Z,9.80
2019-04-01T20:53:51.177Z,9.80
2019-04-01T20:55:48.282Z,9.70
2019-04-01T20:57:39.892Z,9.70
2019-04-01T20:59:34.935Z,9.60
2019-04-01T21:01:29.323Z,9.60
2019-04-01T21:03:24.298Z,9.50
2019-04-01T21:05:19.176Z,9.50
2019-04-01T21:07:13.784Z,9.50
2019-04-01T21:09:09.632Z,9.40
2019-04-01T21:11:05.473Z,9.40
2019-04-01T21:12:59.716Z,9.40
2019-04-01T21:15:17.347Z,9.30
2019-04-01T21:17:11.849Z,9.30
2019-04-01T21:19:06.410Z,9.30
2019-04-01T21:21:00.532Z,9.20
2019-04-01T21:22:54.856Z,9.20
2019-04-01T21:24:49.856Z,9.20
2019-04-01T21:26:44.280Z,9.10
2019-04-01T21:28:38.628Z,9.10
2019-04-01T21:30:33.075Z,9.10
2019-04-01T21:32:28.277Z,9.00
2019-04-01T21:34:22.842Z,9.00
2019-04-01T21:36:17.808Z,9.00
2019-04-01T21:38:12.963Z,8.90
2019-04-01T21:40:08.244Z,8.90
2019-04-01T21:42:03.543Z,8.80
2019-04-01T21:43:58.127Z,8.80
2019-04-01T21:45:52.196Z,8.80
2019-04-01T21:47:46.502Z,8.80
2019-04-01T21:49:41.032Z,8.70
2019-04-01T21:51:35.923Z,8.70
2019-04-01T21:53:31.275Z,8.70
2019-04-01T21:55:26.855Z,8.60
2019-04-01T21:57:22.540Z,8.60
2019-04-01T21:59:18.048Z,8.60
2019-04-01T22:01:14.516Z,8.60
2019-04-01T22:03:09.786Z,8.50
2019-04-01T22:05:05.480Z,8.50
2019-04-01T22:07:00.468Z,8.50
2019-04-01T22:08:55.259Z,8.50
2019-04-01T22:10:50.280Z,8.40
2019-04-01T22:12:45.941Z,8.40
2019-04-01T22:14:40.505Z,8.40
2019-04-01T22:16:35.377Z,8.40
2019-04-01T22:18:32.982Z,8.30
2019-04-01T22:20:27.882Z,8.30
2019-04-01T22:22:22.532Z,8.30
2019-04-01T22:24:17.067Z,8.30
2019-04-01T22:26:11.674Z,8.20
2019-04-01T22:28:06.880Z,8.30
2019-04-01T22:30:01.168Z,8.20
2019-04-01T22:31:59.450Z,8.20
2019-04-01T22:33:54.405Z,8.20
2019-04-01T22:35:48.926Z,8.20
2019-04-01T22:37:44.314Z,8.20
2019-04-01T22:39:41.029Z,8.10
2019-04-01T22:41:36.297Z,8.10
2019-04-01T22:43:30.478Z,8.00
2019-04-01T22:45:25.517Z,8.00
2019-04-01T22:47:20.424Z,8.00
2019-04-01T22:49:15.131Z,8.00
2019-04-01T22:51:10.147Z,7.90
2019-04-01T22:53:06.710Z,7.90
2019-04-01T22:55:01.367Z,7.90
2019-04-01T22:56:56.354Z,7.90
2019-04-01T22:58:51.669Z,7.80
2019-04-01T23:00:47.194Z,7.80
2019-04-01T23:02:42.839Z,7.80
2019-04-01T23:04:39.208Z,7.70
2019-04-01T23:06:34.369Z,7.70
2019-04-01T23:08:31.066Z,7.70
2019-04-01T23:10:27.109Z,7.70
2019-04-01T23:12:22.353Z,7.70
2019-04-01T23:14:17.761Z,7.70
2019-04-01T23:16:13.099Z,7.60
2019-04-01T23:18:10.042Z,7.60
2019-04-01T23:20:07.346Z,7.60
2019-04-01T23:22:02.382Z,7.60
2019-04-01T23:24:12.707Z,7.60
2019-04-01T23:26:17.374Z,7.50
2019-04-01T23:28:12.526Z,7.50
2019-04-01T23:30:09.599Z,7.50
2019-04-01T23:32:04.466Z,7.50
2019-04-01T23:33:59.477Z,7.50
2019-04-01T23:35:53.759Z,7.50
2019-04-01T23:37:48.964Z,7.40
2019-04-01T23:39:43.971Z,7.30
2019-04-01T23:41:39.035Z,7.20
2019-04-01T23:43:33.633Z,7.10
2019-04-01T23:45:28.830Z,7.00
2019-04-01T23:47:23.162Z,6.90
2019-04-01T23:49:17.411Z,6.80
2019-04-01T23:51:12.366Z,6.80
2019-04-01T23:53:06.563Z,6.70
2019-04-01T23:55:01.511Z,6.60
2019-04-01T23:56:56.764Z,6.60
2019-04-01T23:58:51.174Z,6.50
